createdAt,value
2022-12-12T00:01:32.275Z,17.52
2022-12-12T00:04:00.581Z,17.88
2022-12-12T00:06:28.824Z,18.58
2022-12-12T00:08:56.396Z,18.85
2022-12-12T00:11:24.819Z,17.48
2022-12-12T00:13:53.029Z,17.38
2022-12-12T00:16:21.494Z,18.35
2022-12-12T00:18:49.225Z,19.65
2022-12-12T00:21:28.446Z,18.33
2022-12-12T00:23:56.912Z,19.52
2022-12-12T00:26:27.096Z,19.08
2022-12-12T00:28:55.669Z,17.88
2022-12-12T00:31:23.399Z,19.55
2022-12-12T00:33:51.559Z,17.60
2022-12-12T00:36:22.647Z,18.42
2022-12-12T00:38:50.403Z,18.20
2022-12-12T00:41:18.436Z,18.63
2022-12-12T00:43:46.008Z,18.30
2022-12-12T00:46:18.621Z,19.08
2022-12-12T00:48:46.470Z,18.08
2022-12-12T00:51:18.907Z,18.10
2022-12-12T00:53:47.199Z,18.08
2022-12-12T00:56:16.730Z,19.15
2022-12-12T00:58:44.472Z,18.42
2022-12-12T01:01:14.987Z,17.60
2022-12-12T01:03:43.543Z,19.63
2022-12-12T01:06:11.727Z,19.08
2022-12-12T01:08:40.121Z,18.10
2022-12-12T01:11:09.342Z,18.60
2022-12-12T01:13:37.181Z,17.77
2022-12-12T01:16:06.437Z,18.17
2022-12-12T01:18:34.626Z,17.58
2022-12-12T01:21:02.240Z,18.73
2022-12-12T01:23:29.849Z,18.95
2022-12-12T01:26:02.717Z,23.02
2022-12-12T01:28:30.289Z,19.67
2022-12-12T01:30:58.002Z,18.83
2022-12-12T01:33:25.775Z,19.35
2022-12-12T01:35:53.514Z,20.40
2022-12-12T01:38:21.189Z,17.88
2022-12-12T01:40:48.763Z,22.17
2022-12-12T01:43:18.047Z,19.00
2022-12-12T01:46:02.517Z,17.58
2022-12-12T01:48:38.479Z,19.25
2022-12-12T01:51:11.151Z,19.88
2022-12-12T01:53:38.923Z,19.20
2022-12-12T01:56:12.313Z,18.45
2022-12-12T01:58:46.802Z,19.25
2022-12-12T02:01:15.195Z,18.17
2022-12-12T02:03:43.596Z,18.15
2022-12-12T02:06:14.791Z,20.33
2022-12-12T02:08:43.242Z,17.45
2022-12-12T02:11:10.821Z,18.98
2022-12-12T02:13:38.465Z,19.88
2022-12-12T02:16:37.531Z,21.05
2022-12-12T02:19:36.191Z,19.83
2022-12-12T02:22:09.287Z,18.10
2022-12-12T02:24:51.586Z,19.38
2022-12-12T02:27:28.078Z,19.58
2022-12-12T02:32:41.325Z,18.60
2022-12-12T02:35:32.163Z,20.20
2022-12-12T02:38:26.867Z,20.98
2022-12-12T02:40:54.399Z,19.48
2022-12-12T02:43:47.547Z,20.10
2022-12-12T02:46:39.317Z,20.08
2022-12-12T02:49:14.148Z,22.23
2022-12-12T02:51:42.463Z,21.42
2022-12-12T02:54:15.619Z,19.75
2022-12-12T02:56:50.576Z,20.38
2022-12-12T02:59:37.903Z,20.92
2022-12-12T03:02:28.733Z,21.90
2022-12-12T03:05:26.701Z,21.13
2022-12-12T03:08:28.183Z,22.45
2022-12-12T03:10:55.773Z,19.20
2022-12-12T03:13:52.035Z,22.70
2022-12-12T03:16:27.467Z,21.45
2022-12-12T03:19:19.703Z,20.93
2022-12-12T03:21:54.764Z,18.33
2022-12-12T03:24:24.796Z,21.77
2022-12-12T03:27:16.311Z,19.20
2022-12-12T03:30:12.340Z,21.88
2022-12-12T03:32:43.254Z,20.83
2022-12-12T03:35:42.822Z,22.33
2022-12-12T03:38:34.744Z,22.65
2022-12-12T03:41:08.426Z,22.83
2022-12-12T03:44:01.536Z,21.35
2022-12-12T03:46:37.091Z,21.52
2022-12-12T03:49:17.886Z,23.17
2022-12-12T03:51:54.045Z,21.67
2022-12-12T03:54:42.610Z,20.65
2022-12-12T03:57:28.387Z,25.30
2022-12-12T04:00:07.289Z,22.05
2022-12-12T04:02:46.870Z,23.48
2022-12-12T04:05:36.036Z,21.85
2022-12-12T04:08:13.329Z,22.95
2022-12-12T04:11:05.289Z,21.80
2022-12-12T04:14:10.095Z,21.77
2022-12-12T04:16:42.089Z,21.03
2022-12-12T04:19:45.290Z,23.63
2022-12-12T04:22:36.582Z,20.40
2022-12-12T04:25:10.729Z,21.58
2022-12-12T04:27:44.779Z,19.98
2022-12-12T04:30:13.693Z,21.45
2022-12-12T04:32:43.270Z,24.60
2022-12-12T04:35:20.458Z,22.63
2022-12-12T04:37:56.407Z,21.05
2022-12-12T04:40:29.605Z,23.58
2022-12-12T04:43:28.198Z,24.17
2022-12-12T04:46:02.603Z,23.30
2022-12-12T04:48:38.411Z,22.63
2022-12-12T04:51:07.642Z,23.70
2022-12-12T04:53:38.361Z,22.10
2022-12-12T04:56:08.759Z,21.63
2022-12-12T04:58:37.867Z,23.95
2022-12-12T05:01:15.930Z,24.58
2022-12-12T05:04:03.887Z,23.88
2022-12-12T05:06:40.980Z,24.50
2022-12-12T05:09:08.835Z,25.33
2022-12-12T05:11:36.468Z,24.55
2022-12-12T05:14:05.355Z,25.23
2022-12-12T05:16:41.052Z,24.73
2022-12-12T05:19:08.684Z,25.55
2022-12-12T05:21:36.354Z,26.35
2022-12-12T05:24:04.062Z,23.67
2022-12-12T05:26:33.985Z,25.40
2022-12-12T05:29:07.243Z,23.92
2022-12-12T05:31:35.971Z,23.92
2022-12-12T05:34:04.448Z,23.58
2022-12-12T05:36:32.178Z,25.30
2022-12-12T05:38:59.744Z,25.25
2022-12-12T05:41:27.783Z,27.50
2022-12-12T05:43:55.361Z,24.60
2022-12-12T05:46:22.993Z,25.98
2022-12-12T05:48:50.887Z,26.17
2022-12-12T05:51:19.056Z,23.58
2022-12-12T05:53:47.397Z,25.25
2022-12-12T05:56:15.010Z,22.77
2022-12-12T05:58:42.674Z,24.25
2022-12-12T06:01:10.750Z,24.27
2022-12-12T06:03:38.450Z,22.38
2022-12-12T06:06:06.296Z,20.85
2022-12-12T06:08:34.033Z,25.23
2022-12-12T06:11:04.368Z,22.55
2022-12-12T06:13:31.973Z,22.98
2022-12-12T06:15:59.587Z,23.02
2022-12-12T06:18:27.142Z,25.30
2022-12-12T06:21:06.417Z,25.13
2022-12-12T06:23:37.227Z,25.08
2022-12-12T06:26:05.371Z,29.00
2022-12-12T06:28:33.064Z,28.70
2022-12-12T06:31:01.016Z,26.48
2022-12-12T06:33:29.607Z,24.30
2022-12-12T06:36:04.788Z,25.95
2022-12-12T06:38:32.906Z,24.42
2022-12-12T06:41:04.837Z,24.50
2022-12-12T06:43:32.449Z,23.83
2022-12-12T06:46:04.482Z,21.83
2022-12-12T06:48:33.513Z,23.95
2022-12-12T06:51:05.338Z,28.05
2022-12-12T06:53:32.951Z,28.42
2022-12-12T06:56:00.531Z,25.20
2022-12-12T06:58:28.047Z,27.92
2022-12-12T07:00:55.885Z,30.45
2022-12-12T07:03:23.486Z,27.10
2022-12-12T07:05:51.085Z,27.02
2022-12-12T07:08:18.674Z,27.70
2022-12-12T07:10:46.302Z,25.70
2022-12-12T07:13:14.032Z,23.52
2022-12-12T07:15:46.609Z,26.33
2022-12-12T07:18:14.542Z,27.30
2022-12-12T07:20:42.966Z,24.10
2022-12-12T07:23:10.911Z,26.15
2022-12-12T07:25:42.388Z,24.90
2022-12-12T07:28:11.462Z,23.83
2022-12-12T07:30:41.439Z,28.98
2022-12-12T07:33:09.188Z,25.48
2022-12-12T07:35:36.926Z,27.60
2022-12-12T07:38:05.110Z,33.03
2022-12-12T07:40:33.606Z,24.33
2022-12-12T07:43:04.367Z,28.42
2022-12-12T07:45:31.968Z,27.58
2022-12-12T07:47:59.547Z,29.52
2022-12-12T07:50:27.188Z,30.80
2022-12-12T07:52:54.854Z,28.23
2022-12-12T07:55:22.368Z,29.20
2022-12-12T07:57:50.105Z,28.73
2022-12-12T08:00:18.465Z,29.08
2022-12-12T08:02:46.110Z,29.58
2022-12-12T08:05:13.942Z,28.67
2022-12-12T08:07:41.876Z,30.75
2022-12-12T08:10:09.775Z,31.08
2022-12-12T08:12:37.360Z,31.77
2022-12-12T08:15:05.345Z,30.38
2022-12-12T08:17:32.969Z,29.67
2022-12-12T08:20:00.545Z,31.67
2022-12-12T08:22:28.080Z,30.85
2022-12-12T08:24:55.613Z,27.90
2022-12-12T08:27:23.176Z,29.90
2022-12-12T08:29:52.934Z,27.98
2022-12-12T08:32:20.793Z,28.95
2022-12-12T08:34:48.385Z,26.23
2022-12-12T08:37:16.059Z,27.88
2022-12-12T08:39:43.657Z,28.48
2022-12-12T08:42:12.389Z,26.90
2022-12-12T08:44:39.928Z,26.30
2022-12-12T08:47:07.863Z,26.85
2022-12-12T08:49:35.502Z,29.67
2022-12-12T08:52:06.005Z,29.42
2022-12-12T08:54:33.559Z,30.80
2022-12-12T08:57:01.428Z,35.33
2022-12-12T08:59:29.037Z,37.00
2022-12-12T09:01:56.678Z,33.22
2022-12-12T09:04:24.420Z,28.17
2022-12-12T09:06:52.126Z,31.95
2022-12-12T09:09:19.724Z,32.70
2022-12-12T09:11:47.309Z,27.25
2022-12-12T09:14:14.839Z,28.55
2022-12-12T09:16:42.497Z,28.30
2022-12-12T09:19:10.067Z,26.92
2022-12-12T09:21:37.705Z,29.50
2022-12-12T09:24:05.522Z,23.30
2022-12-12T09:26:33.073Z,27.48
2022-12-12T09:29:00.635Z,26.48
2022-12-12T09:31:28.363Z,26.23
2022-12-12T09:33:55.986Z,21.85
2022-12-12T09:36:23.508Z,24.20
2022-12-12T09:38:51.064Z,29.38
2022-12-12T09:41:21.171Z,26.08
2022-12-12T09:44:05.737Z,22.33
2022-12-12T09:46:37.845Z,23.33
2022-12-12T09:49:12.354Z,29.58
2022-12-12T09:51:41.876Z,26.42
2022-12-12T09:54:16.734Z,28.85
2022-12-12T09:56:57.911Z,25.20
2022-12-12T09:59:32.580Z,25.42
2022-12-12T10:02:15.734Z,27.02
2022-12-12T10:05:12.592Z,22.77
2022-12-12T10:07:52.084Z,24.65
2022-12-12T10:10:30.901Z,24.98
2022-12-12T10:12:59.048Z,25.80
2022-12-12T10:15:39.567Z,23.77
2022-12-12T10:18:21.850Z,27.25
2022-12-12T10:20:51.458Z,24.80
2022-12-12T10:23:46.462Z,23.08
2022-12-12T10:26:19.668Z,23.63
2022-12-12T10:28:50.616Z,20.70
2022-12-12T10:31:56.704Z,28.10
2022-12-12T10:34:43.566Z,26.80
2022-12-12T10:37:13.911Z,24.60
2022-12-12T10:40:02.881Z,25.95
2022-12-12T10:42:54.070Z,25.63
2022-12-12T10:45:33.841Z,22.85
2022-12-12T10:48:01.862Z,18.50
2022-12-12T10:50:43.290Z,22.13
2022-12-12T10:53:11.997Z,21.85
2022-12-12T10:55:49.118Z,21.40
2022-12-12T10:58:19.465Z,19.95
2022-12-12T11:00:49.461Z,27.48
2022-12-12T11:03:23.085Z,27.13
2022-12-12T11:05:50.813Z,27.15
2022-12-12T11:08:35.800Z,25.50
2022-12-12T11:11:15.079Z,26.90
2022-12-12T11:14:02.399Z,26.02
2022-12-12T11:16:41.446Z,26.63
2022-12-12T11:19:24.298Z,23.67
2022-12-12T11:21:52.735Z,25.00
2022-12-12T11:24:23.036Z,20.45
2022-12-12T11:26:58.207Z,21.77
2022-12-12T11:29:40.167Z,20.30
2022-12-12T11:32:25.489Z,22.98
2022-12-12T11:35:02.216Z,22.13
2022-12-12T11:37:48.865Z,23.98
2022-12-12T11:40:34.969Z,21.48
2022-12-12T11:43:26.986Z,27.48
2022-12-12T11:46:15.917Z,22.30
2022-12-12T11:48:52.735Z,25.08
2022-12-12T11:51:45.475Z,20.27
2022-12-12T11:54:31.776Z,21.15
2022-12-12T11:57:14.782Z,22.15
2022-12-12T11:59:45.054Z,23.05
2022-12-12T12:02:45.206Z,27.85
2022-12-12T12:05:15.745Z,26.30
2022-12-12T12:08:18.890Z,24.40
2022-12-12T12:10:52.310Z,22.65
2022-12-12T12:13:38.587Z,18.25
2022-12-12T12:18:58.606Z,22.00
2022-12-12T12:21:43.736Z,18.27
2022-12-12T12:24:32.238Z,24.58
2022-12-12T12:27:11.300Z,24.30
2022-12-12T12:29:50.710Z,20.88
2022-12-12T12:32:22.402Z,23.17
2022-12-12T12:34:58.850Z,21.77
2022-12-12T12:40:22.907Z,22.70
2022-12-12T12:43:10.146Z,22.17
2022-12-12T12:45:57.782Z,22.50
2022-12-12T12:48:34.442Z,22.00
2022-12-12T12:51:26.485Z,21.60
2022-12-12T12:54:18.425Z,23.80
2022-12-12T12:57:04.546Z,20.40
2022-12-12T12:59:42.419Z,22.70
2022-12-12T13:02:30.803Z,21.35
2022-12-12T13:05:18.662Z,21.27
2022-12-12T13:07:48.430Z,21.00
2022-12-12T13:10:25.257Z,20.45
2022-12-12T13:12:57.481Z,21.45
2022-12-12T13:15:31.703Z,20.40
2022-12-12T13:18:04.541Z,21.25
2022-12-12T13:20:36.107Z,20.35
2022-12-12T13:23:32.365Z,20.63
2022-12-12T13:26:13.314Z,18.70
2022-12-12T13:29:06.069Z,19.35
2022-12-12T13:31:52.429Z,24.77
2022-12-12T13:36:49.866Z,20.00
2022-12-12T13:39:32.574Z,20.73
2022-12-12T13:42:01.708Z,22.23
2022-12-12T13:44:44.462Z,20.00
2022-12-12T13:47:24.075Z,17.27
2022-12-12T13:49:54.683Z,16.15
2022-12-12T13:52:25.014Z,17.88
2022-12-12T13:55:18.198Z,17.73
2022-12-12T13:58:08.047Z,18.10
2022-12-12T14:00:42.492Z,18.33
2022-12-12T14:03:12.914Z,16.75
2022-12-12T14:05:50.650Z,15.60
2022-12-12T14:08:18.392Z,16.38
2022-12-12T14:10:46.315Z,16.17
2022-12-12T14:13:22.730Z,17.38
2022-12-12T14:21:08.791Z,15.50
2022-12-12T14:23:42.761Z,19.48
2022-12-12T14:26:28.267Z,16.58
2022-12-12T14:29:17.682Z,18.10
2022-12-12T14:32:06.554Z,20.65
2022-12-12T14:35:09.106Z,14.70
2022-12-12T14:37:51.772Z,15.23
2022-12-12T14:40:30.745Z,19.95
2022-12-12T14:43:19.068Z,15.90
2022-12-12T14:45:49.962Z,15.30
2022-12-12T14:48:37.032Z,15.80
2022-12-12T14:51:10.751Z,15.25
2022-12-12T14:53:38.360Z,15.68
2022-12-12T14:56:20.819Z,15.95
2022-12-12T14:58:58.412Z,15.25
2022-12-12T15:01:30.437Z,16.48
2022-12-12T15:03:59.030Z,15.73
2022-12-12T15:06:49.425Z,17.33
2022-12-12T15:09:29.228Z,18.42
2022-12-12T15:12:11.704Z,16.92
2022-12-12T15:14:46.267Z,16.63
2022-12-12T15:17:16.323Z,17.42
2022-12-12T15:19:52.396Z,15.63
2022-12-12T15:22:31.807Z,17.63
2022-12-12T15:25:17.016Z,17.58
2022-12-12T15:27:52.359Z,20.42
2022-12-12T15:30:44.352Z,20.20
2022-12-12T15:33:26.570Z,19.05
2022-12-12T15:36:02.699Z,20.10
2022-12-12T15:41:00.297Z,17.30
2022-12-12T15:43:29.616Z,27.67
2022-12-12T15:46:16.917Z,20.42
2022-12-12T15:48:46.156Z,21.55
2022-12-12T15:51:18.376Z,35.38
2022-12-12T15:53:51.107Z,22.50
2022-12-12T15:56:21.713Z,22.38
2022-12-12T15:58:58.906Z,20.92
2022-12-12T16:01:41.360Z,22.17
2022-12-12T16:04:11.927Z,23.05
2022-12-12T16:06:41.711Z,21.70
2022-12-12T16:09:12.062Z,21.58
2022-12-12T16:11:53.283Z,21.48
2022-12-12T16:14:42.094Z,21.20
2022-12-12T16:17:20.407Z,24.45
2022-12-12T16:20:04.295Z,25.88
2022-12-12T16:22:34.904Z,22.02
2022-12-12T16:25:21.464Z,26.98
2022-12-12T16:28:24.727Z,21.70
2022-12-12T16:30:55.960Z,25.15
2022-12-12T16:33:34.098Z,24.38
2022-12-12T16:36:04.549Z,22.92
2022-12-12T16:38:33.115Z,26.45
2022-12-12T16:41:04.646Z,25.20
2022-12-12T16:43:32.477Z,20.52
2022-12-12T16:46:00.551Z,23.20
2022-12-12T16:48:33.696Z,24.50
2022-12-12T16:51:09.180Z,22.13
2022-12-12T16:53:37.334Z,24.10
2022-12-12T16:56:05.166Z,21.65
2022-12-12T16:58:33.177Z,23.67
2022-12-12T17:01:01.825Z,25.67
2022-12-12T17:03:30.485Z,26.10
2022-12-12T17:05:58.360Z,33.53
2022-12-12T17:08:26.418Z,27.50
2022-12-12T17:11:10.073Z,28.63
2022-12-12T17:13:48.178Z,24.33
2022-12-12T17:16:15.899Z,30.65
2022-12-12T17:18:43.777Z,28.02
2022-12-12T17:21:11.406Z,28.70
2022-12-12T17:23:39.097Z,26.45
2022-12-12T17:26:06.954Z,28.52
2022-12-12T17:28:35.099Z,26.98
2022-12-12T17:31:03.072Z,25.52
2022-12-12T17:33:30.773Z,23.55
2022-12-12T17:36:03.825Z,27.83
2022-12-12T17:38:31.919Z,22.88
2022-12-12T17:41:04.205Z,23.77
2022-12-12T17:43:32.599Z,26.63
2022-12-12T17:46:02.469Z,25.58
2022-12-12T17:48:31.686Z,26.23
2022-12-12T17:51:01.697Z,25.73
2022-12-12T17:53:36.654Z,24.27
2022-12-12T17:58:40.980Z,23.05
2022-12-12T18:01:14.239Z,28.58
2022-12-12T18:03:42.443Z,25.48
2022-12-12T18:06:10.884Z,25.33
2022-12-12T18:08:38.860Z,25.88
2022-12-12T18:11:08.809Z,28.98
2022-12-12T18:13:38.592Z,30.23
2022-12-12T18:16:06.925Z,30.08
2022-12-12T18:18:34.773Z,31.73
2022-12-12T18:21:42.858Z,29.88
2022-12-12T18:24:04.564Z,36.15
2022-12-12T18:26:32.707Z,38.55
2022-12-12T18:29:02.966Z,39.00
2022-12-12T18:31:31.018Z,34.08
2022-12-12T18:33:59.330Z,32.67
2022-12-12T18:36:29.091Z,34.70
2022-12-12T18:38:57.730Z,34.30
2022-12-12T18:41:27.325Z,33.92
2022-12-12T18:43:55.472Z,33.47
2022-12-12T18:46:26.518Z,31.05
2022-12-12T18:48:54.354Z,32.63
2022-12-12T18:51:24.307Z,36.25
2022-12-12T18:53:54.454Z,34.03
2022-12-12T18:56:24.500Z,31.42
2022-12-12T18:58:56.628Z,33.38
2022-12-12T19:01:27.051Z,29.45
2022-12-12T19:03:56.797Z,29.52
2022-12-12T19:06:28.635Z,32.83
2022-12-12T19:08:56.294Z,31.52
2022-12-12T19:11:23.879Z,32.22
2022-12-12T19:13:51.924Z,29.20
2022-12-12T19:16:20.831Z,30.67
2022-12-12T19:18:48.558Z,29.25
2022-12-12T19:21:19.921Z,31.27
2022-12-12T19:23:48.047Z,27.95
2022-12-12T19:26:26.008Z,27.17
2022-12-12T19:29:06.368Z,22.83
2022-12-12T19:31:35.941Z,25.40
2022-12-12T19:34:06.083Z,22.77
2022-12-12T19:36:34.448Z,24.00
2022-12-12T19:39:04.884Z,22.60
2022-12-12T19:41:32.830Z,26.23
2022-12-12T19:44:01.987Z,22.30
2022-12-12T19:46:31.244Z,23.25
2022-12-12T19:49:01.727Z,24.30
2022-12-12T19:51:32.587Z,29.30
2022-12-12T19:54:01.694Z,25.02
2022-12-12T19:56:31.599Z,24.70
2022-12-12T19:58:59.633Z,23.65
2022-12-12T20:01:29.309Z,23.48
2022-12-12T20:04:01.065Z,28.70
2022-12-12T20:06:28.905Z,29.15
2022-12-12T20:08:58.538Z,27.63
2022-12-12T20:11:26.184Z,28.45
2022-12-12T20:13:55.868Z,27.40
2022-12-12T20:16:25.647Z,30.13
2022-12-12T20:18:53.814Z,30.67
2022-12-12T20:21:59.094Z,29.45
2022-12-12T20:24:13.047Z,29.55
2022-12-12T20:26:41.369Z,29.27
2022-12-12T20:29:10.987Z,32.90
2022-12-12T20:31:43.525Z,38.15
2022-12-12T20:34:13.703Z,45.72
2022-12-12T20:36:42.034Z,41.00
2022-12-12T20:39:12.718Z,37.10
2022-12-12T20:41:40.808Z,33.55
2022-12-12T20:44:10.338Z,28.27
2022-12-12T20:46:40.188Z,24.88
2022-12-12T20:49:10.940Z,29.70
2022-12-12T20:51:55.946Z,27.73
2022-12-12T20:54:24.891Z,25.73
2022-12-12T20:56:53.831Z,22.75
2022-12-12T20:59:21.385Z,25.85
2022-12-12T21:01:49.063Z,27.88
2022-12-12T21:04:16.997Z,25.83
2022-12-12T21:06:49.723Z,24.50
2022-12-12T21:09:23.841Z,27.48
2022-12-12T21:11:54.259Z,26.38
2022-12-12T21:14:21.971Z,27.17
2022-12-12T21:16:49.771Z,23.85
2022-12-12T21:19:19.008Z,27.98
2022-12-12T21:21:47.178Z,27.48
2022-12-12T21:24:16.402Z,27.50
2022-12-12T21:26:44.441Z,28.58
2022-12-12T21:29:12.210Z,26.60
2022-12-12T21:31:49.939Z,28.02
2022-12-12T21:34:22.352Z,29.35
2022-12-12T21:36:54.346Z,25.63
2022-12-12T21:39:23.838Z,30.42
2022-12-12T21:41:51.750Z,31.10
2022-12-12T21:44:20.279Z,35.58
2022-12-12T21:46:48.387Z,30.30
2022-12-12T21:49:28.339Z,27.40
2022-12-12T21:52:01.081Z,30.08
2022-12-12T21:54:29.341Z,25.23
2022-12-12T21:57:00.773Z,27.45
2022-12-12T21:59:28.988Z,28.45
2022-12-12T22:01:58.692Z,30.50
2022-12-12T22:04:26.792Z,28.27
2022-12-12T22:06:54.444Z,32.58
2022-12-12T22:09:22.052Z,28.67
2022-12-12T22:11:51.887Z,29.40
2022-12-12T22:14:21.161Z,27.42
2022-12-12T22:16:49.038Z,24.58
2022-12-12T22:19:17.376Z,24.33
2022-12-12T22:21:46.579Z,25.92
2022-12-12T22:24:14.729Z,23.27
2022-12-12T22:26:45.436Z,23.75
2022-12-12T22:29:18.608Z,25.33
2022-12-12T22:31:46.603Z,24.45
2022-12-12T22:34:20.235Z,24.77
2022-12-12T22:36:48.106Z,26.70
2022-12-12T22:39:23.577Z,24.35
2022-12-12T22:41:51.408Z,23.48
2022-12-12T22:44:21.338Z,29.20
2022-12-12T22:46:50.621Z,24.38
2022-12-12T22:49:20.974Z,23.83
2022-12-12T22:51:49.202Z,25.67
2022-12-12T22:54:17.157Z,25.25
2022-12-12T22:56:44.850Z,19.85
2022-12-12T22:59:13.680Z,21.48
2022-12-12T23:01:41.815Z,23.10
2022-12-12T23:04:13.545Z,23.40
2022-12-12T23:06:42.612Z,23.17
2022-12-12T23:09:15.944Z,21.30
2022-12-12T23:11:44.369Z,21.05
2022-12-12T23:14:14.820Z,22.98
2022-12-12T23:16:42.940Z,25.27
2022-12-12T23:19:10.979Z,21.42
2022-12-12T23:21:38.617Z,22.67
2022-12-12T23:24:07.021Z,23.77
2022-12-12T23:26:36.599Z,24.67
2022-12-12T23:29:08.057Z,23.00
2022-12-12T23:31:37.481Z,23.05
2022-12-12T23:34:13.536Z,22.92
2022-12-12T23:36:42.277Z,23.92
2022-12-12T23:39:12.403Z,24.30
2022-12-12T23:41:40.571Z,20.98
2022-12-12T23:44:08.824Z,23.15
2022-12-12T23:46:37.182Z,21.08
2022-12-12T23:49:12.410Z,20.52
2022-12-12T23:51:45.215Z,21.35
2022-12-12T23:54:16.112Z,20.38
2022-12-12T23:56:44.581Z,20.63
2022-12-12T23:59:17.537Z,22.60
